sensor_id;sensor_type;location;lat;lon;timestamp;P1;durP1;ratioP1;P2;durP2;ratioP2
32108;SDS011;18624;50.042;8.436;2022-12-18T00:01:17;30.17;;;18.33;;
32108;SDS011;18624;50.042;8.436;2022-12-18T00:03:47;34.13;;;17.87;;
32108;SDS011;18624;50.042;8.436;2022-12-18T00:06:15;28.70;;;15.97;;
32108;SDS011;18624;50.042;8.436;2022-12-18T00:08:42;32.65;;;17.05;;
32108;SDS011;18624;50.042;8.436;2022-12-18T00:11:12;31.40;;;16.43;;
32108;SDS011;18624;50.042;8.436;2022-12-18T00:13:40;34.27;;;17.53;;
32108;SDS011;18624;50.042;8.436;2022-12-18T00:16:08;30.70;;;17.30;;
32108;SDS011;18624;50.042;8.436;2022-12-18T00:18:37;29.03;;;15.60;;
32108;SDS011;18624;50.042;8.436;2022-12-18T00:21:05;33.30;;;17.50;;
32108;SDS011;18624;50.042;8.436;2022-12-18T00:23:34;31.10;;;17.50;;
32108;SDS011;18624;50.042;8.436;2022-12-18T00:26:09;32.13;;;17.17;;
32108;SDS011;18624;50.042;8.436;2022-12-18T00:28:38;37.10;;;20.23;;
32108;SDS011;18624;50.042;8.436;2022-12-18T00:31:06;31.00;;;16.87;;
32108;SDS011;18624;50.042;8.436;2022-12-18T00:33:36;22.58;;;11.93;;
32108;SDS011;18624;50.042;8.436;2022-12-18T00:36:05;33.50;;;18.80;;
32108;SDS011;18624;50.042;8.436;2022-12-18T00:38:34;35.37;;;17.97;;
32108;SDS011;18624;50.042;8.436;2022-12-18T00:41:01;27.33;;;15.73;;
32108;SDS011;18624;50.042;8.436;2022-12-18T00:43:27;31.83;;;16.90;;
32108;SDS011;18624;50.042;8.436;2022-12-18T00:45:54;33.47;;;16.93;;
32108;SDS011;18624;50.042;8.436;2022-12-18T00:48:20;26.67;;;15.00;;
32108;SDS011;18624;50.042;8.436;2022-12-18T00:50:47;33.37;;;16.87;;
32108;SDS011;18624;50.042;8.436;2022-12-18T00:53:15;32.13;;;15.33;;
32108;SDS011;18624;50.042;8.436;2022-12-18T00:55:42;27.27;;;14.87;;
32108;SDS011;18624;50.042;8.436;2022-12-18T00:58:09;28.43;;;15.30;;
32108;SDS011;18624;50.042;8.436;2022-12-18T01:00:37;35.63;;;16.63;;
32108;SDS011;18624;50.042;8.436;2022-12-18T01:03:04;30.90;;;15.73;;
32108;SDS011;18624;50.042;8.436;2022-12-18T01:05:31;35.00;;;18.13;;
32108;SDS011;18624;50.042;8.436;2022-12-18T01:07:58;30.27;;;16.37;;
32108;SDS011;18624;50.042;8.436;2022-12-18T01:10:25;29.33;;;15.47;;
32108;SDS011;18624;50.042;8.436;2022-12-18T01:12:56;28.20;;;15.93;;
32108;SDS011;18624;50.042;8.436;2022-12-18T01:15:22;32.57;;;15.90;;
32108;SDS011;18624;50.042;8.436;2022-12-18T01:17:48;32.37;;;16.93;;
32108;SDS011;18624;50.042;8.436;2022-12-18T01:20:19;29.40;;;16.23;;
32108;SDS011;18624;50.042;8.436;2022-12-18T01:22:45;32.20;;;15.00;;
32108;SDS011;18624;50.042;8.436;2022-12-18T01:25:12;31.70;;;14.03;;
32108;SDS011;18624;50.042;8.436;2022-12-18T01:27:38;24.13;;;14.53;;
32108;SDS011;18624;50.042;8.436;2022-12-18T01:30:05;32.30;;;16.43;;
32108;SDS011;18624;50.042;8.436;2022-12-18T01:32:32;28.13;;;14.57;;
32108;SDS011;18624;50.042;8.436;2022-12-18T01:35:01;31.23;;;14.77;;
32108;SDS011;18624;50.042;8.436;2022-12-18T01:37:27;28.20;;;14.53;;
32108;SDS011;18624;50.042;8.436;2022-12-18T01:39:53;27.37;;;14.00;;
32108;SDS011;18624;50.042;8.436;2022-12-18T01:42:23;26.93;;;12.83;;
32108;SDS011;18624;50.042;8.436;2022-12-18T01:44:52;26.57;;;14.67;;
32108;SDS011;18624;50.042;8.436;2022-12-18T01:47:33;23.93;;;13.23;;
32108;SDS011;18624;50.042;8.436;2022-12-18T01:50:07;29.30;;;14.63;;
32108;SDS011;18624;50.042;8.436;2022-12-18T01:52:37;29.40;;;14.10;;
32108;SDS011;18624;50.042;8.436;2022-12-18T01:55:05;24.10;;;12.40;;
32108;SDS011;18624;50.042;8.436;2022-12-18T01:57:33;29.43;;;15.50;;
32108;SDS011;18624;50.042;8.436;2022-12-18T02:00:02;28.60;;;13.30;;
32108;SDS011;18624;50.042;8.436;2022-12-18T02:02:38;26.57;;;13.30;;
32108;SDS011;18624;50.042;8.436;2022-12-18T02:05:06;28.13;;;14.87;;
32108;SDS011;18624;50.042;8.436;2022-12-18T02:07:42;23.00;;;13.83;;
32108;SDS011;18624;50.042;8.436;2022-12-18T02:12:45;21.40;;;12.33;;
32108;SDS011;18624;50.042;8.436;2022-12-18T02:15:27;20.23;;;11.87;;
32108;SDS011;18624;50.042;8.436;2022-12-18T02:17:58;23.53;;;13.10;;
32108;SDS011;18624;50.042;8.436;2022-12-18T02:20:33;22.70;;;13.47;;
32108;SDS011;18624;50.042;8.436;2022-12-18T02:23:17;23.52;;;12.43;;
32108;SDS011;18624;50.042;8.436;2022-12-18T02:26:07;22.30;;;11.77;;
32108;SDS011;18624;50.042;8.436;2022-12-18T02:29:05;23.97;;;12.33;;
32108;SDS011;18624;50.042;8.436;2022-12-18T02:34:06;19.63;;;11.30;;
32108;SDS011;18624;50.042;8.436;2022-12-18T02:36:38;21.80;;;12.17;;
32108;SDS011;18624;50.042;8.436;2022-12-18T02:39:07;19.70;;;11.17;;
32108;SDS011;18624;50.042;8.436;2022-12-18T02:41:38;19.27;;;10.60;;
32108;SDS011;18624;50.042;8.436;2022-12-18T02:44:11;23.47;;;12.17;;
32108;SDS011;18624;50.042;8.436;2022-12-18T02:46:46;23.07;;;12.87;;
32108;SDS011;18624;50.042;8.436;2022-12-18T02:49:30;22.60;;;13.10;;
32108;SDS011;18624;50.042;8.436;2022-12-18T02:57:34;26.30;;;14.10;;
32108;SDS011;18624;50.042;8.436;2022-12-18T03:00:10;21.87;;;11.40;;
32108;SDS011;18624;50.042;8.436;2022-12-18T03:02:43;22.10;;;11.10;;
32108;SDS011;18624;50.042;8.436;2022-12-18T03:05:29;18.67;;;10.80;;
32108;SDS011;18624;50.042;8.436;2022-12-18T03:08:02;17.93;;;11.23;;
32108;SDS011;18624;50.042;8.436;2022-12-18T03:10:38;23.13;;;13.80;;
32108;SDS011;18624;50.042;8.436;2022-12-18T03:13:16;23.20;;;12.20;;
32108;SDS011;18624;50.042;8.436;2022-12-18T03:16:08;24.23;;;14.43;;
32108;SDS011;18624;50.042;8.436;2022-12-18T03:18:47;24.20;;;13.27;;
32108;SDS011;18624;50.042;8.436;2022-12-18T03:21:19;26.13;;;13.80;;
32108;SDS011;18624;50.042;8.436;2022-12-18T03:23:50;22.85;;;13.02;;
32108;SDS011;18624;50.042;8.436;2022-12-18T03:28:59;25.65;;;12.32;;
32108;SDS011;18624;50.042;8.436;2022-12-18T03:31:34;26.40;;;13.27;;
32108;SDS011;18624;50.042;8.436;2022-12-18T03:34:04;22.27;;;13.13;;
32108;SDS011;18624;50.042;8.436;2022-12-18T03:36:40;28.40;;;13.37;;
32108;SDS011;18624;50.042;8.436;2022-12-18T03:39:07;24.57;;;14.20;;
32108;SDS011;18624;50.042;8.436;2022-12-18T03:41:51;21.03;;;12.27;;
32108;SDS011;18624;50.042;8.436;2022-12-18T03:44:33;28.38;;;16.38;;
32108;SDS011;18624;50.042;8.436;2022-12-18T03:47:08;24.17;;;13.23;;
32108;SDS011;18624;50.042;8.436;2022-12-18T03:52:29;20.60;;;12.68;;
32108;SDS011;18624;50.042;8.436;2022-12-18T03:55:01;25.13;;;14.20;;
32108;SDS011;18624;50.042;8.436;2022-12-18T03:57:32;25.17;;;14.13;;
32108;SDS011;18624;50.042;8.436;2022-12-18T04:00:11;24.23;;;13.70;;
32108;SDS011;18624;50.042;8.436;2022-12-18T04:02:52;31.10;;;14.20;;
32108;SDS011;18624;50.042;8.436;2022-12-18T04:05:28;21.53;;;12.57;;
32108;SDS011;18624;50.042;8.436;2022-12-18T04:07:59;22.37;;;13.30;;
32108;SDS011;18624;50.042;8.436;2022-12-18T04:10:26;29.30;;;15.17;;
32108;SDS011;18624;50.042;8.436;2022-12-18T04:12:55;26.93;;;13.97;;
32108;SDS011;18624;50.042;8.436;2022-12-18T04:15:23;24.97;;;12.00;;
32108;SDS011;18624;50.042;8.436;2022-12-18T04:17:51;24.67;;;12.90;;
32108;SDS011;18624;50.042;8.436;2022-12-18T04:20:21;29.27;;;14.53;;
32108;SDS011;18624;50.042;8.436;2022-12-18T04:22:47;24.13;;;14.57;;
32108;SDS011;18624;50.042;8.436;2022-12-18T04:25:14;26.87;;;14.50;;
32108;SDS011;18624;50.042;8.436;2022-12-18T04:27:52;23.87;;;13.83;;
32108;SDS011;18624;50.042;8.436;2022-12-18T04:30:18;23.97;;;14.20;;
32108;SDS011;18624;50.042;8.436;2022-12-18T04:32:46;27.03;;;15.57;;
32108;SDS011;18624;50.042;8.436;2022-12-18T04:35:18;25.70;;;13.83;;
32108;SDS011;18624;50.042;8.436;2022-12-18T04:37:45;28.90;;;14.63;;
32108;SDS011;18624;50.042;8.436;2022-12-18T04:40:12;21.67;;;14.07;;
32108;SDS011;18624;50.042;8.436;2022-12-18T04:42:41;24.27;;;13.77;;
32108;SDS011;18624;50.042;8.436;2022-12-18T04:45:08;22.63;;;13.47;;
32108;SDS011;18624;50.042;8.436;2022-12-18T04:47:34;23.33;;;13.60;;
32108;SDS011;18624;50.042;8.436;2022-12-18T04:50:01;25.13;;;13.20;;
32108;SDS011;18624;50.042;8.436;2022-12-18T04:52:28;18.93;;;12.20;;
32108;SDS011;18624;50.042;8.436;2022-12-18T04:54:54;21.17;;;13.23;;
32108;SDS011;18624;50.042;8.436;2022-12-18T04:57:21;22.27;;;12.97;;
32108;SDS011;18624;50.042;8.436;2022-12-18T04:59:47;19.93;;;12.57;;
32108;SDS011;18624;50.042;8.436;2022-12-18T05:02:13;26.57;;;13.53;;
32108;SDS011;18624;50.042;8.436;2022-12-18T05:04:40;24.10;;;14.73;;
32108;SDS011;18624;50.042;8.436;2022-12-18T05:07:06;21.73;;;12.50;;
32108;SDS011;18624;50.042;8.436;2022-12-18T05:09:34;27.60;;;14.83;;
32108;SDS011;18624;50.042;8.436;2022-12-18T05:12:00;22.55;;;12.73;;
32108;SDS011;18624;50.042;8.436;2022-12-18T05:14:26;25.40;;;14.17;;
32108;SDS011;18624;50.042;8.436;2022-12-18T05:16:55;27.50;;;15.03;;
32108;SDS011;18624;50.042;8.436;2022-12-18T05:19:26;24.63;;;14.10;;
32108;SDS011;18624;50.042;8.436;2022-12-18T05:21:52;22.83;;;14.37;;
32108;SDS011;18624;50.042;8.436;2022-12-18T05:24:19;23.63;;;13.17;;
32108;SDS011;18624;50.042;8.436;2022-12-18T05:26:45;25.83;;;14.17;;
32108;SDS011;18624;50.042;8.436;2022-12-18T05:29:12;24.30;;;14.00;;
32108;SDS011;18624;50.042;8.436;2022-12-18T05:31:39;29.97;;;14.87;;
32108;SDS011;18624;50.042;8.436;2022-12-18T05:34:07;29.77;;;14.23;;
32108;SDS011;18624;50.042;8.436;2022-12-18T05:36:33;27.13;;;14.13;;
32108;SDS011;18624;50.042;8.436;2022-12-18T05:39:00;25.57;;;15.20;;
32108;SDS011;18624;50.042;8.436;2022-12-18T05:41:27;25.10;;;14.90;;
32108;SDS011;18624;50.042;8.436;2022-12-18T05:43:53;24.93;;;13.60;;
32108;SDS011;18624;50.042;8.436;2022-12-18T05:46:20;23.87;;;13.47;;
32108;SDS011;18624;50.042;8.436;2022-12-18T05:48:47;28.03;;;14.17;;
32108;SDS011;18624;50.042;8.436;2022-12-18T05:51:15;23.13;;;13.17;;
32108;SDS011;18624;50.042;8.436;2022-12-18T05:53:43;24.23;;;14.13;;
32108;SDS011;18624;50.042;8.436;2022-12-18T05:56:12;28.80;;;13.90;;
32108;SDS011;18624;50.042;8.436;2022-12-18T05:58:41;23.53;;;13.93;;
32108;SDS011;18624;50.042;8.436;2022-12-18T06:01:09;26.30;;;15.33;;
32108;SDS011;18624;50.042;8.436;2022-12-18T06:03:43;25.67;;;14.30;;
32108;SDS011;18624;50.042;8.436;2022-12-18T06:06:24;24.90;;;15.10;;
32108;SDS011;18624;50.042;8.436;2022-12-18T06:08:53;18.52;;;10.63;;
32108;SDS011;18624;50.042;8.436;2022-12-18T06:11:21;27.67;;;16.23;;
32108;SDS011;18624;50.042;8.436;2022-12-18T06:13:54;25.37;;;13.73;;
32108;SDS011;18624;50.042;8.436;2022-12-18T06:16:24;23.43;;;13.77;;
32108;SDS011;18624;50.042;8.436;2022-12-18T06:18:51;21.47;;;12.77;;
32108;SDS011;18624;50.042;8.436;2022-12-18T06:21:17;28.20;;;13.40;;
32108;SDS011;18624;50.042;8.436;2022-12-18T06:23:44;23.80;;;14.77;;
32108;SDS011;18624;50.042;8.436;2022-12-18T06:26:11;37.03;;;18.20;;
32108;SDS011;18624;50.042;8.436;2022-12-18T06:28:38;26.57;;;14.77;;
32108;SDS011;18624;50.042;8.436;2022-12-18T06:31:04;23.23;;;12.50;;
32108;SDS011;18624;50.042;8.436;2022-12-18T06:33:31;29.27;;;15.15;;
32108;SDS011;18624;50.042;8.436;2022-12-18T06:36:03;21.70;;;13.70;;
32108;SDS011;18624;50.042;8.436;2022-12-18T06:38:32;26.27;;;12.80;;
32108;SDS011;18624;50.042;8.436;2022-12-18T06:41:08;26.25;;;12.20;;
32108;SDS011;18624;50.042;8.436;2022-12-18T06:43:38;21.75;;;12.55;;
32108;SDS011;18624;50.042;8.436;2022-12-18T06:46:05;22.27;;;13.40;;
32108;SDS011;18624;50.042;8.436;2022-12-18T06:48:32;24.45;;;13.98;;
32108;SDS011;18624;50.042;8.436;2022-12-18T06:50:58;22.97;;;14.80;;
32108;SDS011;18624;50.042;8.436;2022-12-18T06:53:25;24.57;;;13.23;;
32108;SDS011;18624;50.042;8.436;2022-12-18T06:55:52;22.57;;;13.17;;
32108;SDS011;18624;50.042;8.436;2022-12-18T06:58:18;28.65;;;17.20;;
32108;SDS011;18624;50.042;8.436;2022-12-18T07:00:44;26.73;;;15.20;;
32108;SDS011;18624;50.042;8.436;2022-12-18T07:03:11;29.30;;;13.90;;
32108;SDS011;18624;50.042;8.436;2022-12-18T07:05:41;26.20;;;14.23;;
32108;SDS011;18624;50.042;8.436;2022-12-18T07:08:07;25.87;;;13.23;;
32108;SDS011;18624;50.042;8.436;2022-12-18T07:10:40;25.53;;;14.63;;
32108;SDS011;18624;50.042;8.436;2022-12-18T07:13:13;33.27;;;15.30;;
32108;SDS011;18624;50.042;8.436;2022-12-18T07:15:40;24.73;;;13.00;;
32108;SDS011;18624;50.042;8.436;2022-12-18T07:18:08;26.97;;;14.77;;
32108;SDS011;18624;50.042;8.436;2022-12-18T07:20:34;30.53;;;14.67;;
32108;SDS011;18624;50.042;8.436;2022-12-18T07:23:04;26.43;;;13.90;;
32108;SDS011;18624;50.042;8.436;2022-12-18T07:25:34;26.10;;;12.83;;
32108;SDS011;18624;50.042;8.436;2022-12-18T07:28:01;25.60;;;13.37;;
32108;SDS011;18624;50.042;8.436;2022-12-18T07:30:29;29.77;;;14.00;;
32108;SDS011;18624;50.042;8.436;2022-12-18T07:32:55;27.23;;;13.37;;
32108;SDS011;18624;50.042;8.436;2022-12-18T07:35:22;23.90;;;13.87;;
32108;SDS011;18624;50.042;8.436;2022-12-18T07:37:50;28.30;;;14.33;;
32108;SDS011;18624;50.042;8.436;2022-12-18T07:40:17;27.53;;;14.67;;
32108;SDS011;18624;50.042;8.436;2022-12-18T07:42:43;28.43;;;13.63;;
32108;SDS011;18624;50.042;8.436;2022-12-18T07:45:10;26.00;;;14.03;;
32108;SDS011;18624;50.042;8.436;2022-12-18T07:47:37;24.80;;;14.70;;
32108;SDS011;18624;50.042;8.436;2022-12-18T07:50:04;27.57;;;14.60;;
32108;SDS011;18624;50.042;8.436;2022-12-18T07:52:31;28.13;;;13.97;;
32108;SDS011;18624;50.042;8.436;2022-12-18T07:54:58;24.00;;;13.83;;
32108;SDS011;18624;50.042;8.436;2022-12-18T07:57:24;29.83;;;14.60;;
32108;SDS011;18624;50.042;8.436;2022-12-18T08:00:11;28.80;;;14.37;;
32108;SDS011;18624;50.042;8.436;2022-12-18T08:02:38;31.70;;;14.30;;
32108;SDS011;18624;50.042;8.436;2022-12-18T08:05:07;26.80;;;14.20;;
32108;SDS011;18624;50.042;8.436;2022-12-18T08:07:34;31.03;;;15.60;;
32108;SDS011;18624;50.042;8.436;2022-12-18T08:10:00;26.20;;;14.03;;
32108;SDS011;18624;50.042;8.436;2022-12-18T08:12:27;24.27;;;13.70;;
32108;SDS011;18624;50.042;8.436;2022-12-18T08:14:53;31.77;;;17.07;;
32108;SDS011;18624;50.042;8.436;2022-12-18T08:17:19;28.70;;;16.10;;
32108;SDS011;18624;50.042;8.436;2022-12-18T08:19:46;29.13;;;15.20;;
32108;SDS011;18624;50.042;8.436;2022-12-18T08:22:12;24.27;;;12.83;;
32108;SDS011;18624;50.042;8.436;2022-12-18T08:24:39;29.47;;;14.27;;
32108;SDS011;18624;50.042;8.436;2022-12-18T08:27:05;26.73;;;15.43;;
32108;SDS011;18624;50.042;8.436;2022-12-18T08:29:52;29.00;;;15.50;;
32108;SDS011;18624;50.042;8.436;2022-12-18T08:32:18;27.17;;;14.93;;
32108;SDS011;18624;50.042;8.436;2022-12-18T08:34:45;24.30;;;14.27;;
32108;SDS011;18624;50.042;8.436;2022-12-18T08:37:11;27.53;;;16.73;;
32108;SDS011;18624;50.042;8.436;2022-12-18T08:39:37;31.40;;;14.53;;
32108;SDS011;18624;50.042;8.436;2022-12-18T08:42:04;30.33;;;16.73;;
32108;SDS011;18624;50.042;8.436;2022-12-18T08:44:49;25.00;;;14.83;;
32108;SDS011;18624;50.042;8.436;2022-12-18T08:47:16;28.13;;;14.98;;
32108;SDS011;18624;50.042;8.436;2022-12-18T08:49:42;29.17;;;17.00;;
32108;SDS011;18624;50.042;8.436;2022-12-18T08:52:08;26.25;;;16.42;;
32108;SDS011;18624;50.042;8.436;2022-12-18T08:54:35;31.85;;;17.98;;
32108;SDS011;18624;50.042;8.436;2022-12-18T08:57:01;35.03;;;18.73;;
32108;SDS011;18624;50.042;8.436;2022-12-18T08:59:28;35.50;;;24.58;;
32108;SDS011;18624;50.042;8.436;2022-12-18T09:01:54;29.55;;;19.40;;
32108;SDS011;18624;50.042;8.436;2022-12-18T09:04:21;32.00;;;17.17;;
32108;SDS011;18624;50.042;8.436;2022-12-18T09:06:48;31.52;;;18.10;;
32108;SDS011;18624;50.042;8.436;2022-12-18T09:09:15;32.23;;;17.63;;
32108;SDS011;18624;50.042;8.436;2022-12-18T09:11:41;31.48;;;16.48;;
32108;SDS011;18624;50.042;8.436;2022-12-18T09:14:08;32.97;;;19.52;;
32108;SDS011;18624;50.042;8.436;2022-12-18T09:16:36;34.15;;;19.55;;
32108;SDS011;18624;50.042;8.436;2022-12-18T09:19:03;36.15;;;19.38;;
32108;SDS011;18624;50.042;8.436;2022-12-18T09:21:31;33.70;;;19.73;;
32108;SDS011;18624;50.042;8.436;2022-12-18T09:24:02;37.80;;;19.98;;
32108;SDS011;18624;50.042;8.436;2022-12-18T09:26:34;41.47;;;21.67;;
32108;SDS011;18624;50.042;8.436;2022-12-18T09:29:01;35.00;;;18.98;;
32108;SDS011;18624;50.042;8.436;2022-12-18T09:31:28;34.72;;;22.50;;
32108;SDS011;18624;50.042;8.436;2022-12-18T09:33:55;38.58;;;21.42;;
32108;SDS011;18624;50.042;8.436;2022-12-18T09:36:22;38.28;;;21.88;;
32108;SDS011;18624;50.042;8.436;2022-12-18T09:38:49;34.88;;;20.05;;
32108;SDS011;18624;50.042;8.436;2022-12-18T09:44:17;33.35;;;20.42;;
32108;SDS011;18624;50.042;8.436;2022-12-18T09:47:09;37.30;;;21.50;;
32108;SDS011;18624;50.042;8.436;2022-12-18T09:49:41;33.63;;;20.83;;
32108;SDS011;18624;50.042;8.436;2022-12-18T09:52:23;41.13;;;22.75;;
32108;SDS011;18624;50.042;8.436;2022-12-18T09:55:03;36.73;;;20.37;;
32108;SDS011;18624;50.042;8.436;2022-12-18T09:57:39;42.75;;;22.98;;
32108;SDS011;18624;50.042;8.436;2022-12-18T10:00:21;39.50;;;21.30;;
32108;SDS011;18624;50.042;8.436;2022-12-18T10:02:50;41.70;;;23.33;;
32108;SDS011;18624;50.042;8.436;2022-12-18T10:05:29;37.30;;;21.23;;
32108;SDS011;18624;50.042;8.436;2022-12-18T10:08:16;41.70;;;22.25;;
32108;SDS011;18624;50.042;8.436;2022-12-18T10:10:55;44.78;;;22.02;;
32108;SDS011;18624;50.042;8.436;2022-12-18T10:13:35;42.17;;;23.77;;
32108;SDS011;18624;50.042;8.436;2022-12-18T10:19:26;46.37;;;24.90;;
32108;SDS011;18624;50.042;8.436;2022-12-18T10:27:26;35.45;;;22.92;;
32108;SDS011;18624;50.042;8.436;2022-12-18T10:29:54;39.55;;;23.88;;
32108;SDS011;18624;50.042;8.436;2022-12-18T10:32:23;37.03;;;21.92;;
32108;SDS011;18624;50.042;8.436;2022-12-18T10:34:53;43.15;;;24.02;;
32108;SDS011;18624;50.042;8.436;2022-12-18T10:37:26;40.75;;;23.10;;
32108;SDS011;18624;50.042;8.436;2022-12-18T10:40:14;40.73;;;25.03;;
32108;SDS011;18624;50.042;8.436;2022-12-18T10:42:47;40.38;;;23.45;;
32108;SDS011;18624;50.042;8.436;2022-12-18T10:45:30;46.10;;;26.50;;
32108;SDS011;18624;50.042;8.436;2022-12-18T10:47:56;45.95;;;25.95;;
32108;SDS011;18624;50.042;8.436;2022-12-18T10:53:18;44.88;;;25.45;;
32108;SDS011;18624;50.042;8.436;2022-12-18T10:55:48;42.10;;;23.92;;
32108;SDS011;18624;50.042;8.436;2022-12-18T11:03:38;45.13;;;26.13;;
32108;SDS011;18624;50.042;8.436;2022-12-18T11:06:06;47.03;;;25.60;;
32108;SDS011;18624;50.042;8.436;2022-12-18T11:08:33;43.55;;;23.45;;
32108;SDS011;18624;50.042;8.436;2022-12-18T11:10:59;46.72;;;25.48;;
32108;SDS011;18624;50.042;8.436;2022-12-18T11:13:27;42.42;;;26.08;;
32108;SDS011;18624;50.042;8.436;2022-12-18T11:15:55;52.03;;;29.33;;
32108;SDS011;18624;50.042;8.436;2022-12-18T11:18:25;46.85;;;26.08;;
32108;SDS011;18624;50.042;8.436;2022-12-18T11:23:34;46.33;;;27.63;;
32108;SDS011;18624;50.042;8.436;2022-12-18T11:26:02;47.47;;;25.43;;
32108;SDS011;18624;50.042;8.436;2022-12-18T11:33:47;52.35;;;27.05;;
32108;SDS011;18624;50.042;8.436;2022-12-18T11:36:40;53.38;;;26.05;;
32108;SDS011;18624;50.042;8.436;2022-12-18T11:39:20;44.63;;;25.37;;
32108;SDS011;18624;50.042;8.436;2022-12-18T11:45:23;51.22;;;27.42;;
32108;SDS011;18624;50.042;8.436;2022-12-18T11:47:52;51.33;;;27.25;;
32108;SDS011;18624;50.042;8.436;2022-12-18T11:50:25;53.17;;;30.02;;
32108;SDS011;18624;50.042;8.436;2022-12-18T11:53:11;51.42;;;25.83;;
32108;SDS011;18624;50.042;8.436;2022-12-18T11:55:46;50.70;;;25.50;;
32108;SDS011;18624;50.042;8.436;2022-12-18T11:58:17;57.28;;;27.98;;
32108;SDS011;18624;50.042;8.436;2022-12-18T12:00:51;44.00;;;25.58;;
32108;SDS011;18624;50.042;8.436;2022-12-18T12:06:32;53.20;;;28.40;;
32108;SDS011;18624;50.042;8.436;2022-12-18T12:09:16;58.33;;;28.07;;
32108;SDS011;18624;50.042;8.436;2022-12-18T12:17:42;40.20;;;21.13;;
32108;SDS011;18624;50.042;8.436;2022-12-18T12:20:22;57.13;;;29.17;;
32108;SDS011;18624;50.042;8.436;2022-12-18T12:23:12;48.43;;;27.33;;
32108;SDS011;18624;50.042;8.436;2022-12-18T12:25:56;47.20;;;24.77;;
32108;SDS011;18624;50.042;8.436;2022-12-18T12:28:52;55.00;;;27.87;;
32108;SDS011;18624;50.042;8.436;2022-12-18T12:31:40;53.67;;;27.60;;
32108;SDS011;18624;50.042;8.436;2022-12-18T12:36:49;54.17;;;27.70;;
32108;SDS011;18624;50.042;8.436;2022-12-18T12:39:29;46.95;;;26.50;;
32108;SDS011;18624;50.042;8.436;2022-12-18T12:41:58;44.60;;;25.63;;
32108;SDS011;18624;50.042;8.436;2022-12-18T12:44:45;54.77;;;27.80;;
32108;SDS011;18624;50.042;8.436;2022-12-18T12:47:38;51.35;;;25.35;;
32108;SDS011;18624;50.042;8.436;2022-12-18T12:50:13;56.58;;;28.50;;
32108;SDS011;18624;50.042;8.436;2022-12-18T12:52:46;57.97;;;29.17;;
32108;SDS011;18624;50.042;8.436;2022-12-18T12:55:23;49.53;;;27.52;;
32108;SDS011;18624;50.042;8.436;2022-12-18T12:58:01;44.20;;;25.55;;
32108;SDS011;18624;50.042;8.436;2022-12-18T13:00:36;55.07;;;28.10;;
32108;SDS011;18624;50.042;8.436;2022-12-18T13:03:31;52.13;;;27.65;;
32108;SDS011;18624;50.042;8.436;2022-12-18T13:06:03;52.77;;;27.47;;
32108;SDS011;18624;50.042;8.436;2022-12-18T13:08:52;52.20;;;25.27;;
32108;SDS011;18624;50.042;8.436;2022-12-18T13:11:38;49.80;;;25.92;;
32108;SDS011;18624;50.042;8.436;2022-12-18T13:19:50;52.65;;;25.58;;
32108;SDS011;18624;50.042;8.436;2022-12-18T13:22:20;53.58;;;26.10;;
32108;SDS011;18624;50.042;8.436;2022-12-18T13:24:49;51.65;;;25.27;;
32108;SDS011;18624;50.042;8.436;2022-12-18T13:35:40;47.30;;;24.20;;
32108;SDS011;18624;50.042;8.436;2022-12-18T13:38:21;47.58;;;25.70;;
32108;SDS011;18624;50.042;8.436;2022-12-18T13:40:57;49.28;;;25.90;;
32108;SDS011;18624;50.042;8.436;2022-12-18T13:43:29;47.22;;;22.75;;
32108;SDS011;18624;50.042;8.436;2022-12-18T13:48:31;46.70;;;25.10;;
32108;SDS011;18624;50.042;8.436;2022-12-18T13:51:06;52.13;;;26.73;;
32108;SDS011;18624;50.042;8.436;2022-12-18T13:53:37;55.00;;;28.73;;
32108;SDS011;18624;50.042;8.436;2022-12-18T13:56:09;44.55;;;24.77;;
32108;SDS011;18624;50.042;8.436;2022-12-18T13:58:42;52.75;;;28.80;;
32108;SDS011;18624;50.042;8.436;2022-12-18T14:01:21;49.65;;;23.30;;
32108;SDS011;18624;50.042;8.436;2022-12-18T14:03:49;50.15;;;24.42;;
32108;SDS011;18624;50.042;8.436;2022-12-18T14:06:16;52.72;;;25.48;;
32108;SDS011;18624;50.042;8.436;2022-12-18T14:08:43;50.92;;;25.20;;
32108;SDS011;18624;50.042;8.436;2022-12-18T14:11:17;50.28;;;24.60;;
32108;SDS011;18624;50.042;8.436;2022-12-18T14:13:51;48.63;;;23.73;;
32108;SDS011;18624;50.042;8.436;2022-12-18T14:16:18;48.93;;;24.70;;
32108;SDS011;18624;50.042;8.436;2022-12-18T14:18:46;48.38;;;24.90;;
32108;SDS011;18624;50.042;8.436;2022-12-18T14:21:20;50.40;;;24.05;;
32108;SDS011;18624;50.042;8.436;2022-12-18T14:23:49;55.80;;;25.90;;
32108;SDS011;18624;50.042;8.436;2022-12-18T14:26:49;47.03;;;24.55;;
32108;SDS011;18624;50.042;8.436;2022-12-18T14:32:07;57.10;;;28.63;;
32108;SDS011;18624;50.042;8.436;2022-12-18T14:37:20;54.28;;;24.52;;
32108;SDS011;18624;50.042;8.436;2022-12-18T14:39:53;51.25;;;25.67;;
32108;SDS011;18624;50.042;8.436;2022-12-18T14:42:20;50.53;;;25.92;;
32108;SDS011;18624;50.042;8.436;2022-12-18T14:44:47;44.40;;;21.88;;
32108;SDS011;18624;50.042;8.436;2022-12-18T14:47:33;48.05;;;23.85;;
32108;SDS011;18624;50.042;8.436;2022-12-18T14:50:00;57.85;;;26.08;;
32108;SDS011;18624;50.042;8.436;2022-12-18T14:52:27;43.55;;;21.77;;
32108;SDS011;18624;50.042;8.436;2022-12-18T14:54:57;50.50;;;23.85;;
32108;SDS011;18624;50.042;8.436;2022-12-18T14:57:24;47.58;;;24.48;;
32108;SDS011;18624;50.042;8.436;2022-12-18T15:00:02;46.47;;;23.75;;
32108;SDS011;18624;50.042;8.436;2022-12-18T15:02:40;45.10;;;22.52;;
32108;SDS011;18624;50.042;8.436;2022-12-18T15:07:51;54.97;;;24.77;;
32108;SDS011;18624;50.042;8.436;2022-12-18T15:10:20;40.10;;;22.85;;
32108;SDS011;18624;50.042;8.436;2022-12-18T15:18:14;44.95;;;22.90;;
32108;SDS011;18624;50.042;8.436;2022-12-18T15:20:47;48.35;;;24.33;;
32108;SDS011;18624;50.042;8.436;2022-12-18T15:23:24;49.80;;;23.45;;
32108;SDS011;18624;50.042;8.436;2022-12-18T15:26:00;46.95;;;22.33;;
32108;SDS011;18624;50.042;8.436;2022-12-18T15:28:36;42.90;;;22.70;;
32108;SDS011;18624;50.042;8.436;2022-12-18T15:31:19;48.38;;;23.17;;
32108;SDS011;18624;50.042;8.436;2022-12-18T15:36:16;45.50;;;23.00;;
32108;SDS011;18624;50.042;8.436;2022-12-18T15:38:53;41.00;;;22.63;;
32108;SDS011;18624;50.042;8.436;2022-12-18T15:41:31;41.72;;;22.17;;
32108;SDS011;18624;50.042;8.436;2022-12-18T15:44:01;41.30;;;21.50;;
32108;SDS011;18624;50.042;8.436;2022-12-18T15:46:29;42.45;;;19.88;;
32108;SDS011;18624;50.042;8.436;2022-12-18T15:48:57;44.30;;;23.15;;
32108;SDS011;18624;50.042;8.436;2022-12-18T15:51:28;46.42;;;23.33;;
32108;SDS011;18624;50.042;8.436;2022-12-18T15:53:58;44.03;;;21.52;;
32108;SDS011;18624;50.042;8.436;2022-12-18T15:56:27;39.15;;;20.45;;
32108;SDS011;18624;50.042;8.436;2022-12-18T15:59:17;47.70;;;23.02;;
32108;SDS011;18624;50.042;8.436;2022-12-18T16:01:48;43.03;;;21.52;;
32108;SDS011;18624;50.042;8.436;2022-12-18T16:04:18;43.97;;;21.80;;
32108;SDS011;18624;50.042;8.436;2022-12-18T16:06:46;49.38;;;23.17;;
32108;SDS011;18624;50.042;8.436;2022-12-18T16:09:33;48.28;;;23.38;;
32108;SDS011;18624;50.042;8.436;2022-12-18T16:12:00;48.05;;;23.35;;
32108;SDS011;18624;50.042;8.436;2022-12-18T16:14:27;41.38;;;20.67;;
32108;SDS011;18624;50.042;8.436;2022-12-18T16:16:59;45.15;;;22.77;;